createdAt,value
2018-08-28T00:04:15.082Z,101238.72
2018-08-28T00:09:18.102Z,101241.91
2018-08-28T00:14:21.209Z,101243.42
2018-08-28T00:19:24.282Z,101244.98
2018-08-28T00:24:27.334Z,101244.38
2018-08-28T00:29:30.422Z,101249.78
2018-08-28T00:34:33.638Z,101252.19
2018-08-28T00:39:36.743Z,101261.28
2018-08-28T00:44:39.818Z,101261.59
2018-08-28T00:49:42.877Z,101269.45
2018-08-28T00:54:46.023Z,101273.80
2018-08-28T00:59:49.054Z,101273.34
2018-08-28T01:04:52.139Z,101281.38
2018-08-28T01:09:55.205Z,101284.50
2018-08-28T01:14:58.222Z,101279.56
2018-08-28T01:20:01.291Z,101289.24
2018-08-28T01:25:04.861Z,101292.53
2018-08-28T01:30:07.982Z,101294.78
2018-08-28T01:35:11.026Z,101292.53
2018-08-28T01:40:14.058Z,101292.53
2018-08-28T01:45:17.081Z,101301.26
2018-08-28T01:50:20.138Z,101299.84
2018-08-28T01:55:23.163Z,101302.50
2018-08-28T02:00:26.166Z,101308.63
2018-08-28T02:05:29.246Z,101308.63
2018-08-28T02:10:32.262Z,101303.82
2018-08-28T02:15:35.297Z,101301.54
2018-08-28T02:20:38.328Z,101296.70
2018-08-28T02:25:41.362Z,101300.63
2018-08-28T02:30:44.380Z,101297.20
2018-08-28T02:35:47.406Z,101297.97
2018-08-28T02:40:50.439Z,101310.81
2018-08-28T02:45:53.484Z,101299.84
2018-08-28T02:50:56.525Z,101305.14
2018-08-28T02:55:59.614Z,101298.02
2018-08-28T03:01:02.609Z,101309.67
2018-08-28T03:06:05.772Z,101307.89
2018-08-28T03:11:09.226Z,101314.11
2018-08-28T03:16:12.585Z,101320.36
2018-08-28T03:21:16.009Z,101322.55
2018-08-28T03:26:19.389Z,101327.85
2018-08-28T03:31:22.826Z,101332.57
2018-08-28T03:36:26.279Z,101336.86
2018-08-28T03:41:29.774Z,101344.50
2018-08-28T03:46:33.145Z,101352.41
2018-08-28T03:51:36.566Z,101354.09
2018-08-28T03:56:39.953Z,101363.37
2018-08-28T04:01:43.384Z,101362.13
2018-08-28T04:06:46.830Z,101364.64
2018-08-28T04:11:50.204Z,101358.97
2018-08-28T04:16:53.610Z,101365.96
2018-08-28T04:21:56.979Z,101370.31
2018-08-28T04:27:00.334Z,101375.15
2018-08-28T04:32:03.748Z,101382.55
2018-08-28T04:37:07.246Z,101384.83
2018-08-28T04:42:10.645Z,101394.48
2018-08-28T04:47:13.766Z,101393.16
2018-08-28T04:52:17.436Z,101395.34
2018-08-28T04:57:20.584Z,101402.58
2018-08-28T05:02:28.714Z,101402.40
2018-08-28T05:07:31.930Z,101412.19
2018-08-28T05:12:35.002Z,101418.81
2018-08-28T05:17:38.093Z,101430.25
2018-08-28T05:22:41.174Z,101428.39
2018-08-28T05:27:44.291Z,101437.17
2018-08-28T05:32:47.363Z,101435.34
2018-08-28T05:37:50.438Z,101443.93
2018-08-28T05:42:54.247Z,101442.27
2018-08-28T05:47:57.273Z,101449.91
2018-08-28T05:53:00.332Z,101449.12
2018-08-28T05:58:03.419Z,101456.02
2018-08-28T06:03:07.058Z,101451.00
2018-08-28T06:08:10.171Z,101457.22
2018-08-28T06:13:13.418Z,101459.14
2018-08-28T06:18:16.510Z,101458.58
2018-08-28T06:23:19.578Z,101455.20
2018-08-28T06:28:22.677Z,101452.92
2018-08-28T06:33:25.824Z,101460.90
2018-08-28T06:38:28.875Z,101462.94
2018-08-28T06:43:32.051Z,101467.23
2018-08-28T06:48:35.211Z,101473.41
2018-08-28T06:53:38.310Z,101475.68
2018-08-28T06:58:41.412Z,101474.80
2018-08-28T07:03:44.508Z,101484.36
2018-08-28T07:08:47.606Z,101485.44
2018-08-28T07:13:50.762Z,101486.25
2018-08-28T07:18:53.894Z,101491.67
2018-08-28T07:23:57.094Z,101490.19
2018-08-28T07:29:00.122Z,101497.38
2018-08-28T07:34:03.235Z,101504.36
2018-08-28T07:39:06.940Z,101507.52
2018-08-28T07:44:09.983Z,101516.95
2018-08-28T07:49:13.370Z,101517.95
2018-08-28T07:54:16.426Z,101519.98
2018-08-28T07:59:19.482Z,101521.61
2018-08-28T08:04:22.538Z,101527.08
2018-08-28T08:09:25.574Z,101524.84
2018-08-28T08:14:28.588Z,101531.99
2018-08-28T08:19:31.673Z,101534.42
2018-08-28T08:24:34.726Z,101545.44
2018-08-28T08:29:37.809Z,101539.98
2018-08-28T08:34:40.843Z,101547.00
2018-08-28T08:39:43.897Z,101548.11
2018-08-28T08:44:46.961Z,101543.26
2018-08-28T08:49:50.062Z,101545.45
2018-08-28T08:54:53.185Z,101539.61
2018-08-28T08:59:56.205Z,101548.66
2018-08-28T09:04:59.247Z,101539.83
2018-08-28T09:10:02.344Z,101542.15
2018-08-28T09:15:05.615Z,101544.70
2018-08-28T09:20:08.734Z,101537.27
2018-08-28T09:25:11.863Z,101539.09
2018-08-28T09:30:14.935Z,101535.05
2018-08-28T09:35:17.987Z,101532.95
2018-08-28T09:40:20.990Z,101539.47
2018-08-28T09:45:24.022Z,101541.23
2018-08-28T09:50:27.163Z,101533.84
2018-08-28T09:55:30.218Z,101542.45
2018-08-28T10:00:37.834Z,101538.43
2018-08-28T10:05:40.965Z,101540.52
2018-08-28T10:10:44.054Z,101536.98
2018-08-28T10:15:47.101Z,101534.64
2018-08-28T10:20:50.118Z,101537.91
2018-08-28T10:25:53.151Z,101540.02
2018-08-28T10:30:56.185Z,101529.31
2018-08-28T10:35:59.236Z,101525.51
2018-08-28T10:41:02.382Z,101518.27
2018-08-28T10:46:05.760Z,101522.49
2018-08-28T10:51:08.765Z,101519.93
2018-08-28T10:56:11.835Z,101524.27
2018-08-28T11:01:14.885Z,101534.44
2018-08-28T11:06:17.939Z,101540.11
2018-08-28T11:11:20.957Z,101548.23
2018-08-28T11:16:23.997Z,101545.51
2018-08-28T11:21:27.061Z,101555.16
2018-08-28T11:26:30.215Z,101555.97
2018-08-28T11:31:33.243Z,101560.20
2018-08-28T11:36:36.313Z,101560.06
2018-08-28T11:41:39.550Z,101559.06
2018-08-28T11:46:43.658Z,101560.70
2018-08-28T11:51:47.610Z,101568.28
2018-08-28T11:56:51.045Z,101564.61
2018-08-28T12:01:56.048Z,101571.60
2018-08-28T12:07:00.401Z,101566.63
2018-08-28T12:12:04.159Z,101571.27
2018-08-28T12:17:08.096Z,101568.94
2018-08-28T12:22:12.284Z,101570.52
2018-08-28T12:27:16.413Z,101564.80
2018-08-28T12:32:20.229Z,101566.75
2018-08-28T12:37:24.304Z,101562.73
2018-08-28T12:42:27.963Z,101557.25
2018-08-28T12:47:32.370Z,101553.65
2018-08-28T12:52:36.614Z,101554.51
2018-08-28T12:57:39.892Z,101542.15
2018-08-28T13:02:44.119Z,101546.47
2018-08-28T13:07:47.876Z,101537.58
2018-08-28T13:12:51.399Z,101535.07
2018-08-28T13:17:54.454Z,101536.68
2018-08-28T13:22:57.506Z,101539.69
2018-08-28T13:28:00.588Z,101532.33
2018-08-28T13:33:03.679Z,101521.95
2018-08-28T13:38:06.747Z,101528.09
2018-08-28T13:43:09.823Z,101514.72
2018-08-28T13:48:13.006Z,101508.60
2018-08-28T13:53:16.030Z,101507.55
2018-08-28T13:58:19.062Z,101502.09
2018-08-28T14:03:22.076Z,101492.33
2018-08-28T14:08:25.088Z,101486.30
2018-08-28T14:13:28.155Z,101484.37
2018-08-28T14:18:31.451Z,101481.27
2018-08-28T14:23:34.675Z,101482.61
2018-08-28T14:28:37.711Z,101486.52
2018-08-28T14:33:40.785Z,101479.77
2018-08-28T14:38:43.936Z,101477.67
2018-08-28T14:43:47.038Z,101479.58
2018-08-28T14:48:50.225Z,101474.27
2018-08-28T14:53:53.279Z,101475.48
2018-08-28T14:58:56.649Z,101474.05
2018-08-28T15:03:59.698Z,101481.23
2018-08-28T15:09:02.863Z,101475.48
2018-08-28T15:14:06.537Z,101470.36
2018-08-28T15:19:10.109Z,101462.62
2018-08-28T15:24:13.125Z,101458.76
2018-08-28T15:29:16.166Z,101450.71
2018-08-28T15:34:19.274Z,101458.48
2018-08-28T15:39:22.331Z,101460.41
2018-08-28T15:44:25.385Z,101457.09
2018-08-28T15:49:28.527Z,101448.70
2018-08-28T15:54:31.706Z,101451.30
2018-08-28T15:59:34.767Z,101449.13
2018-08-28T16:04:37.862Z,101446.16
2018-08-28T16:09:40.906Z,101443.53
2018-08-28T16:14:45.178Z,101443.69
2018-08-28T16:19:48.257Z,101445.59
2018-08-28T16:24:51.417Z,101443.20
2018-08-28T16:29:54.998Z,101439.61
2018-08-28T16:34:58.152Z,101438.16
2018-08-28T16:40:01.211Z,101335.54
2018-08-28T16:45:04.358Z,101442.73
2018-08-28T16:50:08.387Z,101435.70
2018-08-28T16:55:11.737Z,101432.05
2018-08-28T17:00:14.889Z,101427.59
2018-08-28T17:05:17.946Z,101428.61
2018-08-28T17:10:20.993Z,101424.66
2018-08-28T17:15:24.018Z,101427.13
2018-08-28T17:20:27.045Z,101420.30
2018-08-28T17:25:30.089Z,101419.82
2018-08-28T17:30:33.229Z,101419.34
2018-08-28T17:35:36.378Z,101405.84
2018-08-28T17:40:39.500Z,101404.97
2018-08-28T17:45:42.649Z,101396.11
2018-08-28T17:50:45.673Z,101419.34
2018-08-28T18:06:28.026Z,101416.66
2018-08-28T18:11:31.925Z,101412.09
2018-08-28T18:16:37.155Z,101422.73
2018-08-28T18:21:51.261Z,101420.97
2018-08-28T18:27:08.135Z,101424.42
2018-08-28T18:32:17.186Z,101421.75
2018-08-28T18:37:20.219Z,101414.70
2018-08-28T18:42:26.746Z,101419.52
2018-08-28T18:47:35.358Z,101417.61
2018-08-28T18:52:39.609Z,101424.72
2018-08-28T18:57:42.709Z,101427.17
2018-08-28T19:02:46.110Z,101421.27
2018-08-28T19:08:04.655Z,101426.06
2018-08-28T19:18:48.443Z,101412.62
2018-08-28T19:24:05.187Z,101410.83
2018-08-28T19:29:46.696Z,101402.91
2018-08-28T19:35:12.067Z,101397.16
2018-08-28T19:40:26.611Z,101392.94
2018-08-28T19:45:43.512Z,101392.53
2018-08-28T19:56:21.722Z,101392.80
2018-08-28T20:01:38.378Z,101389.11
2018-08-28T20:06:53.430Z,101383.79
2018-08-28T20:11:56.625Z,101376.30
2018-08-28T20:16:59.772Z,101372.87
2018-08-28T20:22:02.798Z,101367.00
2018-08-28T20:27:06.424Z,101367.36
2018-08-28T20:32:09.503Z,101375.41
2018-08-28T20:37:12.613Z,101370.39
2018-08-28T20:42:15.633Z,101372.55
2018-08-28T20:47:18.667Z,101365.64
2018-08-28T20:52:21.661Z,101368.39
2018-08-28T20:57:25.405Z,101370.27
2018-08-28T21:02:28.417Z,101367.69
2018-08-28T21:07:31.509Z,101361.91
2018-08-28T21:12:34.586Z,101363.75
2018-08-28T21:17:37.708Z,101356.16
2018-08-28T21:22:40.693Z,101351.39
2018-08-28T21:27:43.774Z,101351.45
2018-08-28T21:32:46.809Z,101346.89
2018-08-28T21:37:49.849Z,101339.86
2018-08-28T21:42:52.865Z,101339.55
2018-08-28T21:47:56.215Z,101336.69
2018-08-28T21:52:59.276Z,101339.34
2018-08-28T21:58:02.318Z,101330.02
2018-08-28T22:03:06.742Z,101327.45
2018-08-28T22:08:09.809Z,101328.78
2018-08-28T22:13:12.980Z,101328.34
2018-08-28T22:18:16.077Z,101333.09
2018-08-28T22:23:19.113Z,101323.31
2018-08-28T22:28:22.117Z,101319.31
2018-08-28T22:33:25.114Z,101313.83
2018-08-28T22:38:28.133Z,101318.86
2018-08-28T22:43:31.174Z,101310.31
2018-08-28T22:48:34.210Z,101311.32
2018-08-28T22:53:37.193Z,101300.39
2018-08-28T22:58:40.258Z,101293.99
2018-08-28T23:03:43.269Z,101292.99
2018-08-28T23:08:46.282Z,101291.03
2018-08-28T23:13:49.281Z,101286.28
2018-08-28T23:18:52.273Z,101282.22
2018-08-28T23:23:55.341Z,101273.25
2018-08-28T23:28:58.439Z,101270.59
2018-08-28T23:34:01.685Z,101268.96
2018-08-28T23:39:06.117Z,101254.62
2018-08-28T23:44:09.117Z,101260.87
2018-08-28T23:49:12.114Z,101251.23
2018-08-28T23:54:15.121Z,101245.69
2018-08-28T23:59:18.114Z,101239.94
